sensor_id;sensor_type;location;lat;lon;timestamp;P1;durP1;ratioP1;P2;durP2;ratioP2
39492;SDS011;25176;51.060;3.720;2023-04-09T00:00:33;42.55;;;32.42;;
39492;SDS011;25176;51.060;3.720;2023-04-09T00:02:59;41.92;;;33.50;;
39492;SDS011;25176;51.060;3.720;2023-04-09T00:05:24;43.53;;;34.10;;
39492;SDS011;25176;51.060;3.720;2023-04-09T00:07:50;42.75;;;33.78;;
39492;SDS011;25176;51.060;3.720;2023-04-09T00:10:15;42.97;;;33.63;;
39492;SDS011;25176;51.060;3.720;2023-04-09T00:12:41;43.53;;;34.40;;
39492;SDS011;25176;51.060;3.720;2023-04-09T00:15:07;45.88;;;33.47;;
39492;SDS011;25176;51.060;3.720;2023-04-09T00:17:33;42.33;;;32.28;;
39492;SDS011;25176;51.060;3.720;2023-04-09T00:19:58;42.60;;;33.08;;
39492;SDS011;25176;51.060;3.720;2023-04-09T00:22:24;42.25;;;33.85;;
39492;SDS011;25176;51.060;3.720;2023-04-09T00:24:49;44.03;;;34.45;;
39492;SDS011;25176;51.060;3.720;2023-04-09T00:27:15;45.22;;;34.00;;
39492;SDS011;25176;51.060;3.720;2023-04-09T00:29:41;44.65;;;34.28;;
39492;SDS011;25176;51.060;3.720;2023-04-09T00:32:06;44.83;;;34.15;;
39492;SDS011;25176;51.060;3.720;2023-04-09T00:34:32;44.50;;;35.33;;
39492;SDS011;25176;51.060;3.720;2023-04-09T00:36:58;48.53;;;35.72;;
39492;SDS011;25176;51.060;3.720;2023-04-09T00:39:23;43.78;;;35.38;;
39492;SDS011;25176;51.060;3.720;2023-04-09T00:41:49;48.00;;;37.38;;
39492;SDS011;25176;51.060;3.720;2023-04-09T00:44:19;49.88;;;38.30;;
39492;SDS011;25176;51.060;3.720;2023-04-09T00:46:45;49.97;;;37.65;;
39492;SDS011;25176;51.060;3.720;2023-04-09T00:49:10;50.20;;;37.90;;
39492;SDS011;25176;51.060;3.720;2023-04-09T00:51:36;53.10;;;39.08;;
39492;SDS011;25176;51.060;3.720;2023-04-09T00:54:02;50.75;;;37.97;;
39492;SDS011;25176;51.060;3.720;2023-04-09T00:56:28;50.90;;;38.25;;
39492;SDS011;25176;51.060;3.720;2023-04-09T00:58:54;49.47;;;39.85;;
39492;SDS011;25176;51.060;3.720;2023-04-09T01:01:20;50.03;;;37.55;;
39492;SDS011;25176;51.060;3.720;2023-04-09T01:03:45;48.13;;;37.25;;
39492;SDS011;25176;51.060;3.720;2023-04-09T01:11:58;46.58;;;35.30;;
39492;SDS011;25176;51.060;3.720;2023-04-09T01:17:17;47.00;;;34.05;;
39492;SDS011;25176;51.060;3.720;2023-04-09T01:20:02;47.50;;;35.35;;
39492;SDS011;25176;51.060;3.720;2023-04-09T01:25:37;49.70;;;38.30;;
39492;SDS011;25176;51.060;3.720;2023-04-09T01:28:21;47.97;;;36.70;;
39492;SDS011;25176;51.060;3.720;2023-04-09T01:30:58;48.95;;;35.85;;
39492;SDS011;25176;51.060;3.720;2023-04-09T01:33:28;50.30;;;38.30;;
39492;SDS011;25176;51.060;3.720;2023-04-09T01:35:55;49.60;;;36.47;;
39492;SDS011;25176;51.060;3.720;2023-04-09T01:38:22;47.45;;;37.70;;
39492;SDS011;25176;51.060;3.720;2023-04-09T01:40:50;46.47;;;35.65;;
39492;SDS011;25176;51.060;3.720;2023-04-09T01:43:16;47.30;;;36.50;;
39492;SDS011;25176;51.060;3.720;2023-04-09T01:45:43;52.08;;;35.72;;
39492;SDS011;25176;51.060;3.720;2023-04-09T01:48:10;45.25;;;35.40;;
39492;SDS011;25176;51.060;3.720;2023-04-09T01:50:37;45.65;;;35.33;;
39492;SDS011;25176;51.060;3.720;2023-04-09T01:53:03;49.28;;;35.90;;
39492;SDS011;25176;51.060;3.720;2023-04-09T01:55:29;48.28;;;37.25;;
39492;SDS011;25176;51.060;3.720;2023-04-09T01:57:55;46.22;;;35.50;;
39492;SDS011;25176;51.060;3.720;2023-04-09T02:00:20;47.72;;;35.80;;
39492;SDS011;25176;51.060;3.720;2023-04-09T02:02:50;46.45;;;34.65;;
39492;SDS011;25176;51.060;3.720;2023-04-09T02:05:40;48.90;;;36.20;;
39492;SDS011;25176;51.060;3.720;2023-04-09T02:08:10;45.28;;;35.30;;
39492;SDS011;25176;51.060;3.720;2023-04-09T02:10:38;44.55;;;36.50;;
39492;SDS011;25176;51.060;3.720;2023-04-09T02:13:04;46.40;;;34.70;;
39492;SDS011;25176;51.060;3.720;2023-04-09T02:15:35;46.35;;;35.83;;
39492;SDS011;25176;51.060;3.720;2023-04-09T02:18:03;45.38;;;34.67;;
39492;SDS011;25176;51.060;3.720;2023-04-09T02:20:28;46.42;;;35.38;;
39492;SDS011;25176;51.060;3.720;2023-04-09T02:22:54;48.85;;;34.80;;
39492;SDS011;25176;51.060;3.720;2023-04-09T02:25:21;46.03;;;36.72;;
39492;SDS011;25176;51.060;3.720;2023-04-09T02:27:46;45.13;;;34.25;;
39492;SDS011;25176;51.060;3.720;2023-04-09T02:30:12;42.70;;;33.63;;
39492;SDS011;25176;51.060;3.720;2023-04-09T02:32:38;44.90;;;34.00;;
39492;SDS011;25176;51.060;3.720;2023-04-09T02:35:03;45.10;;;33.58;;
39492;SDS011;25176;51.060;3.720;2023-04-09T02:37:29;42.83;;;33.35;;
39492;SDS011;25176;51.060;3.720;2023-04-09T02:39:55;43.72;;;33.33;;
39492;SDS011;25176;51.060;3.720;2023-04-09T02:42:20;45.92;;;33.15;;
39492;SDS011;25176;51.060;3.720;2023-04-09T02:44:46;45.33;;;33.80;;
39492;SDS011;25176;51.060;3.720;2023-04-09T02:47:11;44.03;;;33.75;;
39492;SDS011;25176;51.060;3.720;2023-04-09T02:49:37;43.22;;;33.83;;
39492;SDS011;25176;51.060;3.720;2023-04-09T02:52:03;42.13;;;32.85;;
39492;SDS011;25176;51.060;3.720;2023-04-09T02:54:28;41.60;;;33.00;;
39492;SDS011;25176;51.060;3.720;2023-04-09T02:56:54;45.97;;;32.83;;
39492;SDS011;25176;51.060;3.720;2023-04-09T02:59:20;41.67;;;32.17;;
39492;SDS011;25176;51.060;3.720;2023-04-09T03:01:45;40.55;;;32.10;;
39492;SDS011;25176;51.060;3.720;2023-04-09T03:04:11;43.85;;;32.05;;
39492;SDS011;25176;51.060;3.720;2023-04-09T03:06:36;41.03;;;31.27;;
39492;SDS011;25176;51.060;3.720;2023-04-09T03:09:02;40.33;;;30.70;;
39492;SDS011;25176;51.060;3.720;2023-04-09T03:11:27;41.00;;;32.00;;
39492;SDS011;25176;51.060;3.720;2023-04-09T03:13:53;42.50;;;31.30;;
39492;SDS011;25176;51.060;3.720;2023-04-09T03:16:19;39.22;;;30.42;;
39492;SDS011;25176;51.060;3.720;2023-04-09T03:18:44;45.05;;;31.52;;
39492;SDS011;25176;51.060;3.720;2023-04-09T03:21:10;40.55;;;30.45;;
39492;SDS011;25176;51.060;3.720;2023-04-09T03:23:35;39.42;;;28.38;;
39492;SDS011;25176;51.060;3.720;2023-04-09T03:26:02;39.65;;;30.42;;
39492;SDS011;25176;51.060;3.720;2023-04-09T03:28:29;38.55;;;29.05;;
39492;SDS011;25176;51.060;3.720;2023-04-09T03:30:55;39.30;;;30.10;;
39492;SDS011;25176;51.060;3.720;2023-04-09T03:33:20;37.35;;;29.20;;
39492;SDS011;25176;51.060;3.720;2023-04-09T03:35:46;38.85;;;29.10;;
39492;SDS011;25176;51.060;3.720;2023-04-09T03:38:11;42.67;;;29.77;;
39492;SDS011;25176;51.060;3.720;2023-04-09T03:40:37;38.63;;;30.52;;
39492;SDS011;25176;51.060;3.720;2023-04-09T03:43:02;42.20;;;31.85;;
39492;SDS011;25176;51.060;3.720;2023-04-09T03:45:28;42.55;;;30.75;;
39492;SDS011;25176;51.060;3.720;2023-04-09T03:47:53;40.75;;;31.08;;
39492;SDS011;25176;51.060;3.720;2023-04-09T03:50:19;39.03;;;29.55;;
39492;SDS011;25176;51.060;3.720;2023-04-09T03:52:45;38.00;;;29.20;;
39492;SDS011;25176;51.060;3.720;2023-04-09T03:55:11;37.63;;;30.25;;
39492;SDS011;25176;51.060;3.720;2023-04-09T03:57:36;39.15;;;29.98;;
39492;SDS011;25176;51.060;3.720;2023-04-09T04:00:02;39.03;;;29.65;;
39492;SDS011;25176;51.060;3.720;2023-04-09T04:02:28;39.53;;;29.13;;
39492;SDS011;25176;51.060;3.720;2023-04-09T04:04:57;37.05;;;28.77;;
39492;SDS011;25176;51.060;3.720;2023-04-09T04:07:25;40.63;;;30.95;;
39492;SDS011;25176;51.060;3.720;2023-04-09T04:09:51;41.65;;;30.33;;
39492;SDS011;25176;51.060;3.720;2023-04-09T04:12:17;37.50;;;28.98;;
39492;SDS011;25176;51.060;3.720;2023-04-09T04:14:42;38.53;;;28.33;;
39492;SDS011;25176;51.060;3.720;2023-04-09T04:17:09;41.22;;;30.50;;
39492;SDS011;25176;51.060;3.720;2023-04-09T04:19:35;40.75;;;30.15;;
39492;SDS011;25176;51.060;3.720;2023-04-09T04:22:01;40.72;;;30.38;;
39492;SDS011;25176;51.060;3.720;2023-04-09T04:24:26;46.65;;;31.60;;
39492;SDS011;25176;51.060;3.720;2023-04-09T04:26:52;42.22;;;30.52;;
39492;SDS011;25176;51.060;3.720;2023-04-09T04:29:17;38.78;;;29.70;;
39492;SDS011;25176;51.060;3.720;2023-04-09T04:31:43;41.92;;;30.30;;
39492;SDS011;25176;51.060;3.720;2023-04-09T04:34:08;40.13;;;29.80;;
39492;SDS011;25176;51.060;3.720;2023-04-09T04:36:35;42.65;;;30.60;;
39492;SDS011;25176;51.060;3.720;2023-04-09T04:39:00;38.85;;;29.23;;
39492;SDS011;25176;51.060;3.720;2023-04-09T04:41:26;41.72;;;30.85;;
39492;SDS011;25176;51.060;3.720;2023-04-09T04:43:51;36.90;;;28.88;;
39492;SDS011;25176;51.060;3.720;2023-04-09T04:46:17;37.72;;;29.23;;
39492;SDS011;25176;51.060;3.720;2023-04-09T04:48:44;42.38;;;31.40;;
39492;SDS011;25176;51.060;3.720;2023-04-09T04:51:09;41.10;;;29.92;;
39492;SDS011;25176;51.060;3.720;2023-04-09T04:53:35;37.45;;;28.92;;
39492;SDS011;25176;51.060;3.720;2023-04-09T04:56:01;39.28;;;29.33;;
39492;SDS011;25176;51.060;3.720;2023-04-09T04:58:26;40.20;;;29.30;;
39492;SDS011;25176;51.060;3.720;2023-04-09T05:00:52;39.78;;;28.77;;
39492;SDS011;25176;51.060;3.720;2023-04-09T05:03:17;42.63;;;31.67;;
39492;SDS011;25176;51.060;3.720;2023-04-09T05:05:43;40.67;;;30.55;;
39492;SDS011;25176;51.060;3.720;2023-04-09T05:08:09;37.25;;;28.33;;
39492;SDS011;25176;51.060;3.720;2023-04-09T05:10:35;40.47;;;29.65;;
39492;SDS011;25176;51.060;3.720;2023-04-09T05:13:01;40.78;;;29.55;;
39492;SDS011;25176;51.060;3.720;2023-04-09T05:15:26;40.35;;;30.55;;
39492;SDS011;25176;51.060;3.720;2023-04-09T05:17:52;41.00;;;29.73;;
39492;SDS011;25176;51.060;3.720;2023-04-09T05:20:18;38.72;;;29.48;;
39492;SDS011;25176;51.060;3.720;2023-04-09T05:22:43;41.72;;;30.08;;
39492;SDS011;25176;51.060;3.720;2023-04-09T05:25:09;42.22;;;30.23;;
39492;SDS011;25176;51.060;3.720;2023-04-09T05:27:34;39.75;;;30.05;;
39492;SDS011;25176;51.060;3.720;2023-04-09T05:30:00;42.53;;;31.52;;
39492;SDS011;25176;51.060;3.720;2023-04-09T05:32:26;41.65;;;30.00;;
39492;SDS011;25176;51.060;3.720;2023-04-09T05:34:52;41.03;;;30.48;;
39492;SDS011;25176;51.060;3.720;2023-04-09T05:37:17;43.22;;;29.77;;
39492;SDS011;25176;51.060;3.720;2023-04-09T05:39:43;42.17;;;31.70;;
39492;SDS011;25176;51.060;3.720;2023-04-09T05:42:08;39.63;;;30.83;;
39492;SDS011;25176;51.060;3.720;2023-04-09T05:44:34;45.85;;;32.90;;
39492;SDS011;25176;51.060;3.720;2023-04-09T05:47:00;43.88;;;30.83;;
39492;SDS011;25176;51.060;3.720;2023-04-09T05:49:25;46.10;;;32.13;;
39492;SDS011;25176;51.060;3.720;2023-04-09T05:51:51;42.58;;;29.38;;
39492;SDS011;25176;51.060;3.720;2023-04-09T05:54:17;46.08;;;32.85;;
39492;SDS011;25176;51.060;3.720;2023-04-09T05:56:42;43.58;;;31.27;;
39492;SDS011;25176;51.060;3.720;2023-04-09T05:59:08;43.45;;;30.83;;
39492;SDS011;25176;51.060;3.720;2023-04-09T06:01:33;45.15;;;31.55;;
39492;SDS011;25176;51.060;3.720;2023-04-09T06:03:59;44.92;;;32.33;;
39492;SDS011;25176;51.060;3.720;2023-04-09T06:06:25;47.08;;;32.50;;
39492;SDS011;25176;51.060;3.720;2023-04-09T06:08:50;48.05;;;33.08;;
39492;SDS011;25176;51.060;3.720;2023-04-09T06:11:16;45.60;;;32.55;;
39492;SDS011;25176;51.060;3.720;2023-04-09T06:13:42;47.53;;;34.15;;
39492;SDS011;25176;51.060;3.720;2023-04-09T06:16:07;42.08;;;32.40;;
39492;SDS011;25176;51.060;3.720;2023-04-09T06:18:34;43.67;;;31.40;;
39492;SDS011;25176;51.060;3.720;2023-04-09T06:21:01;42.95;;;31.13;;
39492;SDS011;25176;51.060;3.720;2023-04-09T06:23:27;49.28;;;32.63;;
39492;SDS011;25176;51.060;3.720;2023-04-09T06:25:53;45.65;;;31.88;;
39492;SDS011;25176;51.060;3.720;2023-04-09T06:28:18;44.78;;;33.15;;
39492;SDS011;25176;51.060;3.720;2023-04-09T06:30:44;46.25;;;30.50;;
39492;SDS011;25176;51.060;3.720;2023-04-09T06:33:10;46.33;;;32.92;;
39492;SDS011;25176;51.060;3.720;2023-04-09T06:35:36;45.55;;;32.40;;
39492;SDS011;25176;51.060;3.720;2023-04-09T06:38:02;46.47;;;32.65;;
39492;SDS011;25176;51.060;3.720;2023-04-09T06:40:27;45.28;;;33.60;;
39492;SDS011;25176;51.060;3.720;2023-04-09T06:42:53;46.70;;;33.45;;
39492;SDS011;25176;51.060;3.720;2023-04-09T06:45:18;47.97;;;34.03;;
39492;SDS011;25176;51.060;3.720;2023-04-09T06:47:44;47.90;;;33.22;;
39492;SDS011;25176;51.060;3.720;2023-04-09T06:50:09;46.55;;;31.83;;
39492;SDS011;25176;51.060;3.720;2023-04-09T06:52:35;48.15;;;32.70;;
39492;SDS011;25176;51.060;3.720;2023-04-09T06:55:00;43.50;;;33.03;;
39492;SDS011;25176;51.060;3.720;2023-04-09T06:57:26;48.75;;;34.65;;
39492;SDS011;25176;51.060;3.720;2023-04-09T06:59:52;45.47;;;33.08;;
39492;SDS011;25176;51.060;3.720;2023-04-09T07:02:17;46.75;;;33.30;;
39492;SDS011;25176;51.060;3.720;2023-04-09T07:04:43;45.85;;;33.42;;
39492;SDS011;25176;51.060;3.720;2023-04-09T07:07:08;46.00;;;31.05;;
39492;SDS011;25176;51.060;3.720;2023-04-09T07:09:34;46.22;;;32.83;;
39492;SDS011;25176;51.060;3.720;2023-04-09T07:12:01;43.00;;;32.90;;
39492;SDS011;25176;51.060;3.720;2023-04-09T07:14:27;41.50;;;29.52;;
39492;SDS011;25176;51.060;3.720;2023-04-09T07:16:52;42.10;;;30.13;;
39492;SDS011;25176;51.060;3.720;2023-04-09T07:19:18;45.70;;;32.45;;
39492;SDS011;25176;51.060;3.720;2023-04-09T07:21:44;42.20;;;30.23;;
39492;SDS011;25176;51.060;3.720;2023-04-09T07:24:09;46.42;;;33.42;;
39492;SDS011;25176;51.060;3.720;2023-04-09T07:26:35;44.20;;;30.30;;
39492;SDS011;25176;51.060;3.720;2023-04-09T07:29:01;41.08;;;31.23;;
39492;SDS011;25176;51.060;3.720;2023-04-09T07:31:28;43.25;;;30.70;;
39492;SDS011;25176;51.060;3.720;2023-04-09T07:33:54;43.05;;;30.70;;
39492;SDS011;25176;51.060;3.720;2023-04-09T07:36:19;41.40;;;31.23;;
39492;SDS011;25176;51.060;3.720;2023-04-09T07:38:45;39.03;;;28.52;;
39492;SDS011;25176;51.060;3.720;2023-04-09T07:41:10;35.65;;;26.80;;
39492;SDS011;25176;51.060;3.720;2023-04-09T07:43:36;40.78;;;28.55;;
39492;SDS011;25176;51.060;3.720;2023-04-09T07:46:02;36.13;;;28.15;;
39492;SDS011;25176;51.060;3.720;2023-04-09T07:48:28;35.97;;;28.65;;
39492;SDS011;25176;51.060;3.720;2023-04-09T07:50:54;34.10;;;26.33;;
39492;SDS011;25176;51.060;3.720;2023-04-09T07:53:19;37.90;;;29.95;;
39492;SDS011;25176;51.060;3.720;2023-04-09T07:55:45;38.13;;;30.40;;
39492;SDS011;25176;51.060;3.720;2023-04-09T07:58:10;36.22;;;30.38;;
39492;SDS011;25176;51.060;3.720;2023-04-09T08:00:36;35.97;;;30.30;;
39492;SDS011;25176;51.060;3.720;2023-04-09T08:03:01;33.95;;;29.45;;
39492;SDS011;25176;51.060;3.720;2023-04-09T08:05:28;35.05;;;30.05;;
39492;SDS011;25176;51.060;3.720;2023-04-09T08:07:54;38.78;;;30.92;;
39492;SDS011;25176;51.060;3.720;2023-04-09T08:10:20;35.17;;;30.08;;
39492;SDS011;25176;51.060;3.720;2023-04-09T08:12:46;35.80;;;30.52;;
39492;SDS011;25176;51.060;3.720;2023-04-09T08:15:12;36.05;;;30.70;;
39492;SDS011;25176;51.060;3.720;2023-04-09T08:17:38;37.17;;;31.30;;
39492;SDS011;25176;51.060;3.720;2023-04-09T08:20:04;36.50;;;31.90;;
39492;SDS011;25176;51.060;3.720;2023-04-09T08:22:30;34.85;;;30.38;;
39492;SDS011;25176;51.060;3.720;2023-04-09T08:24:57;35.58;;;31.20;;
39492;SDS011;25176;51.060;3.720;2023-04-09T08:27:23;35.50;;;31.80;;
39492;SDS011;25176;51.060;3.720;2023-04-09T08:29:49;34.13;;;30.52;;
39492;SDS011;25176;51.060;3.720;2023-04-09T08:32:15;33.97;;;30.52;;
39492;SDS011;25176;51.060;3.720;2023-04-09T08:34:40;34.35;;;30.70;;
39492;SDS011;25176;51.060;3.720;2023-04-09T08:37:06;33.22;;;29.63;;
39492;SDS011;25176;51.060;3.720;2023-04-09T08:39:32;32.15;;;28.75;;
39492;SDS011;25176;51.060;3.720;2023-04-09T08:41:58;33.42;;;29.98;;
39492;SDS011;25176;51.060;3.720;2023-04-09T08:44:25;31.52;;;28.33;;
39492;SDS011;25176;51.060;3.720;2023-04-09T08:46:51;31.58;;;28.20;;
39492;SDS011;25176;51.060;3.720;2023-04-09T08:49:18;30.58;;;27.38;;
39492;SDS011;25176;51.060;3.720;2023-04-09T08:51:45;31.23;;;27.98;;
39492;SDS011;25176;51.060;3.720;2023-04-09T08:54:13;31.27;;;28.02;;
39492;SDS011;25176;51.060;3.720;2023-04-09T08:56:44;31.63;;;28.33;;
39492;SDS011;25176;51.060;3.720;2023-04-09T08:59:13;30.27;;;27.25;;
39492;SDS011;25176;51.060;3.720;2023-04-09T09:01:39;27.60;;;25.02;;
39492;SDS011;25176;51.060;3.720;2023-04-09T09:04:05;31.45;;;28.35;;
39492;SDS011;25176;51.060;3.720;2023-04-09T09:06:33;31.70;;;28.50;;
39492;SDS011;25176;51.060;3.720;2023-04-09T09:09:10;33.65;;;30.27;;
39492;SDS011;25176;51.060;3.720;2023-04-09T09:11:41;32.58;;;29.55;;
39492;SDS011;25176;51.060;3.720;2023-04-09T09:14:10;30.42;;;27.35;;
39492;SDS011;25176;51.060;3.720;2023-04-09T09:16:38;30.70;;;27.70;;
39492;SDS011;25176;51.060;3.720;2023-04-09T09:19:07;31.10;;;27.98;;
39492;SDS011;25176;51.060;3.720;2023-04-09T09:21:55;30.80;;;27.83;;
39492;SDS011;25176;51.060;3.720;2023-04-09T09:24:21;32.17;;;28.98;;
39492;SDS011;25176;51.060;3.720;2023-04-09T09:26:47;28.42;;;25.75;;
39492;SDS011;25176;51.060;3.720;2023-04-09T09:29:13;25.92;;;23.50;;
39492;SDS011;25176;51.060;3.720;2023-04-09T09:31:48;28.13;;;25.40;;
39492;SDS011;25176;51.060;3.720;2023-04-09T09:34:15;26.52;;;24.02;;
39492;SDS011;25176;51.060;3.720;2023-04-09T09:36:41;24.98;;;22.58;;
39492;SDS011;25176;51.060;3.720;2023-04-09T09:39:08;26.65;;;24.17;;
39492;SDS011;25176;51.060;3.720;2023-04-09T09:41:34;26.40;;;23.70;;
39492;SDS011;25176;51.060;3.720;2023-04-09T09:44:00;24.77;;;22.42;;
39492;SDS011;25176;51.060;3.720;2023-04-09T09:46:27;26.70;;;24.10;;
39492;SDS011;25176;51.060;3.720;2023-04-09T09:48:58;20.35;;;18.48;;
39492;SDS011;25176;51.060;3.720;2023-04-09T09:51:24;22.55;;;20.45;;
39492;SDS011;25176;51.060;3.720;2023-04-09T09:53:54;24.00;;;21.67;;
39492;SDS011;25176;51.060;3.720;2023-04-09T09:56:21;26.73;;;24.20;;
39492;SDS011;25176;51.060;3.720;2023-04-09T09:59:09;26.85;;;24.30;;
39492;SDS011;25176;51.060;3.720;2023-04-09T10:01:41;23.73;;;21.42;;
39492;SDS011;25176;51.060;3.720;2023-04-09T10:04:10;27.17;;;24.58;;
39492;SDS011;25176;51.060;3.720;2023-04-09T10:09:06;23.95;;;21.85;;
39492;SDS011;25176;51.060;3.720;2023-04-09T10:11:34;27.80;;;25.02;;
39492;SDS011;25176;51.060;3.720;2023-04-09T10:14:01;24.85;;;22.55;;
39492;SDS011;25176;51.060;3.720;2023-04-09T10:16:27;27.40;;;24.80;;
39492;SDS011;25176;51.060;3.720;2023-04-09T10:18:56;21.95;;;19.95;;
39492;SDS011;25176;51.060;3.720;2023-04-09T10:23:48;23.55;;;20.95;;
39492;SDS011;25176;51.060;3.720;2023-04-09T10:26:16;20.15;;;18.35;;
39492;SDS011;25176;51.060;3.720;2023-04-09T10:28:42;24.35;;;22.05;;
39492;SDS011;25176;51.060;3.720;2023-04-09T10:31:08;21.90;;;19.77;;
39492;SDS011;25176;51.060;3.720;2023-04-09T10:33:35;23.80;;;21.45;;
39492;SDS011;25176;51.060;3.720;2023-04-09T10:36:04;22.48;;;20.27;;
39492;SDS011;25176;51.060;3.720;2023-04-09T10:41:12;20.27;;;18.40;;
39492;SDS011;25176;51.060;3.720;2023-04-09T10:43:51;22.38;;;20.08;;
39492;SDS011;25176;51.060;3.720;2023-04-09T10:46:30;22.20;;;19.88;;
39492;SDS011;25176;51.060;3.720;2023-04-09T10:49:13;34.67;;;28.08;;
39492;SDS011;25176;51.060;3.720;2023-04-09T10:51:40;23.83;;;19.40;;
39492;SDS011;25176;51.060;3.720;2023-04-09T10:57:08;18.73;;;16.73;;
39492;SDS011;25176;51.060;3.720;2023-04-09T10:59:35;19.88;;;17.90;;
39492;SDS011;25176;51.060;3.720;2023-04-09T11:04:38;22.63;;;18.63;;
39492;SDS011;25176;51.060;3.720;2023-04-09T11:07:25;20.92;;;18.63;;
39492;SDS011;25176;51.060;3.720;2023-04-09T11:09:54;21.85;;;19.55;;
39492;SDS011;25176;51.060;3.720;2023-04-09T11:12:19;22.48;;;19.17;;
39492;SDS011;25176;51.060;3.720;2023-04-09T11:14:45;20.75;;;18.33;;
39492;SDS011;25176;51.060;3.720;2023-04-09T11:17:11;22.67;;;20.10;;
39492;SDS011;25176;51.060;3.720;2023-04-09T11:19:37;21.83;;;19.20;;
39492;SDS011;25176;51.060;3.720;2023-04-09T11:22:03;22.77;;;19.80;;
39492;SDS011;25176;51.060;3.720;2023-04-09T11:24:40;21.85;;;18.38;;
39492;SDS011;25176;51.060;3.720;2023-04-09T11:27:10;21.92;;;18.30;;
39492;SDS011;25176;51.060;3.720;2023-04-09T11:29:36;20.70;;;17.98;;
39492;SDS011;25176;51.060;3.720;2023-04-09T11:32:02;22.27;;;18.17;;
39492;SDS011;25176;51.060;3.720;2023-04-09T11:34:31;19.13;;;16.60;;
39492;SDS011;25176;51.060;3.720;2023-04-09T11:36:57;21.25;;;16.45;;
39492;SDS011;25176;51.060;3.720;2023-04-09T11:39:24;16.42;;;13.93;;
39492;SDS011;25176;51.060;3.720;2023-04-09T11:41:50;17.17;;;14.93;;
39492;SDS011;25176;51.060;3.720;2023-04-09T11:44:15;18.15;;;14.38;;
39492;SDS011;25176;51.060;3.720;2023-04-09T11:46:41;22.13;;;15.55;;
39492;SDS011;25176;51.060;3.720;2023-04-09T11:49:07;20.52;;;14.18;;
39492;SDS011;25176;51.060;3.720;2023-04-09T11:51:33;18.23;;;13.88;;
39492;SDS011;25176;51.060;3.720;2023-04-09T11:54:03;17.48;;;13.18;;
39492;SDS011;25176;51.060;3.720;2023-04-09T11:56:29;18.15;;;15.05;;
39492;SDS011;25176;51.060;3.720;2023-04-09T11:58:56;17.15;;;14.20;;
39492;SDS011;25176;51.060;3.720;2023-04-09T12:01:22;18.48;;;15.85;;
39492;SDS011;25176;51.060;3.720;2023-04-09T12:03:54;16.45;;;13.93;;
39492;SDS011;25176;51.060;3.720;2023-04-09T12:06:20;16.55;;;14.38;;
39492;SDS011;25176;51.060;3.720;2023-04-09T12:08:47;18.50;;;14.98;;
39492;SDS011;25176;51.060;3.720;2023-04-09T12:11:17;18.50;;;13.87;;
39492;SDS011;25176;51.060;3.720;2023-04-09T12:13:44;18.80;;;13.07;;
39492;SDS011;25176;51.060;3.720;2023-04-09T12:16:10;17.15;;;14.00;;
39492;SDS011;25176;51.060;3.720;2023-04-09T12:18:36;17.08;;;14.15;;
39492;SDS011;25176;51.060;3.720;2023-04-09T12:21:02;17.35;;;13.85;;
39492;SDS011;25176;51.060;3.720;2023-04-09T12:23:29;15.88;;;13.02;;
39492;SDS011;25176;51.060;3.720;2023-04-09T12:25:58;17.08;;;13.60;;
39492;SDS011;25176;51.060;3.720;2023-04-09T12:28:25;15.95;;;14.00;;
39492;SDS011;25176;51.060;3.720;2023-04-09T12:30:51;16.20;;;13.93;;
39492;SDS011;25176;51.060;3.720;2023-04-09T12:33:18;16.48;;;12.95;;
39492;SDS011;25176;51.060;3.720;2023-04-09T12:35:44;17.30;;;14.30;;
39492;SDS011;25176;51.060;3.720;2023-04-09T12:38:10;14.27;;;12.75;;
39492;SDS011;25176;51.060;3.720;2023-04-09T12:40:36;19.60;;;13.27;;
39492;SDS011;25176;51.060;3.720;2023-04-09T12:43:01;15.88;;;13.35;;
39492;SDS011;25176;51.060;3.720;2023-04-09T12:45:30;14.75;;;12.73;;
39492;SDS011;25176;51.060;3.720;2023-04-09T12:47:58;13.93;;;11.27;;
39492;SDS011;25176;51.060;3.720;2023-04-09T12:50:24;14.48;;;11.55;;
39492;SDS011;25176;51.060;3.720;2023-04-09T12:52:50;14.32;;;12.45;;
39492;SDS011;25176;51.060;3.720;2023-04-09T12:55:15;13.90;;;11.73;;
39492;SDS011;25176;51.060;3.720;2023-04-09T12:57:42;13.32;;;11.73;;
39492;SDS011;25176;51.060;3.720;2023-04-09T13:00:09;13.63;;;11.55;;
39492;SDS011;25176;51.060;3.720;2023-04-09T13:02:35;14.80;;;13.23;;
39492;SDS011;25176;51.060;3.720;2023-04-09T13:05:01;14.98;;;11.98;;
39492;SDS011;25176;51.060;3.720;2023-04-09T13:07:28;16.45;;;12.25;;
39492;SDS011;25176;51.060;3.720;2023-04-09T13:09:54;15.05;;;12.80;;
39492;SDS011;25176;51.060;3.720;2023-04-09T13:12:21;15.68;;;12.13;;
39492;SDS011;25176;51.060;3.720;2023-04-09T13:14:47;14.13;;;11.88;;
39492;SDS011;25176;51.060;3.720;2023-04-09T13:17:14;13.65;;;11.20;;
39492;SDS011;25176;51.060;3.720;2023-04-09T13:19:40;14.73;;;12.73;;
39492;SDS011;25176;51.060;3.720;2023-04-09T13:22:05;14.00;;;12.13;;
39492;SDS011;25176;51.060;3.720;2023-04-09T13:24:33;14.63;;;12.18;;
39492;SDS011;25176;51.060;3.720;2023-04-09T13:27:00;11.07;;;9.98;;
39492;SDS011;25176;51.060;3.720;2023-04-09T13:29:26;12.38;;;8.85;;
39492;SDS011;25176;51.060;3.720;2023-04-09T13:31:53;11.55;;;8.93;;
39492;SDS011;25176;51.060;3.720;2023-04-09T13:34:22;10.98;;;8.75;;
39492;SDS011;25176;51.060;3.720;2023-04-09T13:36:49;9.82;;;8.32;;
39492;SDS011;25176;51.060;3.720;2023-04-09T13:39:15;11.95;;;10.65;;
39492;SDS011;25176;51.060;3.720;2023-04-09T13:41:40;12.15;;;10.13;;
39492;SDS011;25176;51.060;3.720;2023-04-09T13:44:06;15.32;;;12.40;;
39492;SDS011;25176;51.060;3.720;2023-04-09T13:46:31;11.73;;;10.43;;
39492;SDS011;25176;51.060;3.720;2023-04-09T13:48:57;12.23;;;10.85;;
39492;SDS011;25176;51.060;3.720;2023-04-09T13:51:23;12.48;;;10.57;;
39492;SDS011;25176;51.060;3.720;2023-04-09T13:53:51;12.57;;;11.15;;
39492;SDS011;25176;51.060;3.720;2023-04-09T13:56:16;12.27;;;10.20;;
39492;SDS011;25176;51.060;3.720;2023-04-09T13:58:42;14.90;;;11.35;;
39492;SDS011;25176;51.060;3.720;2023-04-09T14:01:08;15.02;;;11.25;;
39492;SDS011;25176;51.060;3.720;2023-04-09T14:03:34;12.18;;;10.15;;
39492;SDS011;25176;51.060;3.720;2023-04-09T14:06:02;14.00;;;10.93;;
39492;SDS011;25176;51.060;3.720;2023-04-09T14:08:28;12.30;;;11.00;;
39492;SDS011;25176;51.060;3.720;2023-04-09T14:10:54;13.15;;;10.65;;
39492;SDS011;25176;51.060;3.720;2023-04-09T14:13:20;12.13;;;9.95;;
39492;SDS011;25176;51.060;3.720;2023-04-09T14:15:46;11.65;;;10.05;;
39492;SDS011;25176;51.060;3.720;2023-04-09T14:18:12;13.20;;;11.15;;
39492;SDS011;25176;51.060;3.720;2023-04-09T14:20:37;14.32;;;11.10;;
39492;SDS011;25176;51.060;3.720;2023-04-09T14:23:03;12.25;;;10.52;;
39492;SDS011;25176;51.060;3.720;2023-04-09T14:25:28;12.90;;;10.55;;
39492;SDS011;25176;51.060;3.720;2023-04-09T14:27:54;13.27;;;10.77;;
39492;SDS011;25176;51.060;3.720;2023-04-09T14:30:21;11.18;;;9.88;;
39492;SDS011;25176;51.060;3.720;2023-04-09T14:32:46;12.90;;;10.57;;
39492;SDS011;25176;51.060;3.720;2023-04-09T14:35:12;14.75;;;11.25;;
39492;SDS011;25176;51.060;3.720;2023-04-09T14:37:37;10.45;;;8.82;;
39492;SDS011;25176;51.060;3.720;2023-04-09T14:40:05;13.20;;;9.40;;
39492;SDS011;25176;51.060;3.720;2023-04-09T14:42:32;11.93;;;9.35;;